Time;durP1;ratioP1;P1;durP2;ratioP2;P2;SDS_P1;SDS_P2;PMS_P1;PMS_P2;Temp;Humidity;BMP_temperature;BMP_pressure;BME280_temperature;BME280_humidity;BME280_pressure;Samples;Min_cycle;Max_cycle;Signal;HPM_P1;HPM_P2
2023/03/10 00:03:39;;;;;;;5.13;2.10;;;;;;;20.28;46.95;95027.63;10513170;28;20403;-74
2023/03/10 00:08:59;;;;;;;5.18;1.85;;;;;;;20.26;47.03;95024.50;10469775;28;20423;-74
2023/03/10 00:14:18;;;;;;;4.93;1.88;;;;;;;20.25;46.98;95017.56;10497616;28;20037;-74
2023/03/10 00:19:37;;;;;;;3.22;1.65;;;;;;;20.25;46.87;95014.09;10512452;28;20040;-74
2023/03/10 00:24:57;;;;;;;3.60;1.65;;;;;;;20.22;46.95;95010.19;10497240;28;20044;-74
2023/03/10 00:30:17;;;;;;;4.57;1.75;;;;;;;20.22;46.94;95009.41;10497014;28;20044;-74
2023/03/10 00:35:36;;;;;;;4.25;1.73;;;;;;;20.21;46.87;95005.94;10511902;28;20051;-74
2023/03/10 00:41:07;;;;;;;4.53;1.80;;;;;;;20.19;46.97;94994.72;10511727;28;20048;-74
2023/03/10 00:46:28;;;;;;;3.28;1.67;;;;;;;20.18;46.71;94985.03;10496422;28;20051;-74
2023/03/10 00:51:48;;;;;;;4.50;1.70;;;;;;;20.17;46.95;94964.56;10488868;28;20071;-74
2023/03/10 00:57:07;;;;;;;4.22;1.50;;;;;;;20.14;46.72;94952.56;10496005;28;20044;-74
2023/03/10 01:02:27;;;;;;;4.38;1.60;;;;;;;20.13;46.81;94950.22;10495951;28;20557;-74
2023/03/10 01:07:47;;;;;;;3.33;1.42;;;;;;;20.12;46.74;94929.75;10495495;28;20135;-74
2023/03/10 01:13:06;;;;;;;4.07;1.70;;;;;;;20.11;46.72;94914.66;10510971;28;20048;-74
2023/03/10 01:18:25;;;;;;;5.78;1.73;;;;;;;20.09;46.65;94915.06;10481475;28;20049;-74
2023/03/10 01:23:45;;;;;;;4.72;1.55;;;;;;;20.09;46.69;94903.47;10467965;28;20049;-74
2023/03/10 01:29:04;;;;;;;4.43;1.63;;;;;;;20.07;46.58;94897.66;10510703;28;20048;-73
2023/03/10 01:34:24;;;;;;;3.22;1.45;;;;;;;20.05;46.74;94883.72;10481404;28;20404;-74
2023/03/10 01:39:43;;;;;;;3.00;1.50;;;;;;;20.04;46.61;94869.44;10481163;28;20389;-74
2023/03/10 01:45:04;;;;;;;4.95;1.70;;;;;;;20.02;46.50;94873.69;10495151;28;20048;-74
2023/03/10 01:50:23;;;;;;;2.65;1.20;;;;;;;20.01;46.65;94864.78;10478004;28;20052;-74
2023/03/10 01:55:51;;;;;;;2.70;1.30;;;;;;;20.00;46.51;94860.53;10495155;28;20036;-74
2023/03/10 02:01:12;;;;;;;2.70;1.33;;;;;;;20.00;46.53;94851.66;10495207;28;20102;-74
2023/03/10 02:06:34;;;;;;;3.10;1.50;;;;;;;19.97;46.59;94834.25;10494739;28;20488;-74
2023/03/10 02:11:55;;;;;;;2.58;1.30;;;;;;;19.96;46.59;94830.00;10494817;28;20048;-74
2023/03/10 02:17:17;;;;;;;3.05;1.20;;;;;;;19.95;46.76;94823.84;10494596;28;20048;-74
2023/03/10 02:22:37;;;;;;;3.13;1.42;;;;;;;19.93;46.60;94814.53;10484602;28;20446;-74
2023/03/10 02:27:57;;;;;;;4.68;1.80;;;;;;;19.92;46.69;94813.75;10501807;28;20537;-74
2023/03/10 02:33:23;;;;;;;1.95;1.20;;;;;;;19.91;46.51;94792.50;10501419;28;20048;-74
2023/03/10 02:38:43;;;;;;;2.30;1.20;;;;;;;19.90;46.51;94785.56;10516411;28;20407;-74
2023/03/10 02:44:07;;;;;;;3.45;1.33;;;;;;;19.89;46.52;94781.28;10487165;28;20044;-75
2023/03/10 02:49:27;;;;;;;3.78;1.70;;;;;;;19.86;46.51;94769.31;10486297;28;20043;-74
2023/03/10 02:54:47;;;;;;;3.58;1.75;;;;;;;19.85;46.57;94765.06;10500766;28;20484;-74
2023/03/10 03:00:08;;;;;;;2.83;1.25;;;;;;;19.84;46.46;94752.72;10500358;28;20508;-74
2023/03/10 03:05:28;;;;;;;1.90;1.20;;;;;;;19.82;46.43;94749.59;10515363;28;20094;-74
2023/03/10 03:10:48;;;;;;;3.30;1.35;;;;;;;19.81;46.61;94750.75;10486097;28;20044;-74
2023/03/10 03:16:08;;;;;;;1.77;1.20;;;;;;;19.80;46.39;94745.72;10499722;28;20472;-73
2023/03/10 03:21:30;;;;;;;4.38;1.30;;;;;;;19.79;46.59;94741.47;10485615;28;20044;-74
2023/03/10 03:26:50;;;;;;;2.05;1.00;;;;;;;19.77;46.50;94731.03;10485371;28;20041;-74
2023/03/10 03:32:13;;;;;;;2.45;1.20;;;;;;;19.75;46.52;94723.28;10498863;28;20043;-74
2023/03/10 03:37:33;;;;;;;2.40;1.10;;;;;;;19.75;46.58;94715.19;10499046;28;20408;-74
2023/03/10 03:42:53;;;;;;;2.85;1.20;;;;;;;19.73;46.38;94709.38;10513850;28;20044;-73
2023/03/10 03:48:14;;;;;;;2.42;1.20;;;;;;;19.72;46.43;94704.38;10484467;28;20102;-74
2023/03/10 03:53:34;;;;;;;2.22;1.20;;;;;;;19.71;46.54;94700.88;10486369;28;20098;-74
2023/03/10 03:58:56;;;;;;;2.33;1.02;;;;;;;19.69;46.42;94705.88;10484179;28;20472;-74
2023/03/10 04:04:16;;;;;;;2.05;1.10;;;;;;;19.70;46.45;94695.84;10497936;28;20044;-74
2023/03/10 04:09:40;;;;;;;2.08;1.10;;;;;;;19.68;46.39;94695.44;10483707;28;20048;-74
2023/03/10 04:15:00;;;;;;;2.33;1.17;;;;;;;19.65;46.40;94683.44;10497542;28;20045;-74
2023/03/10 04:20:19;;;;;;;2.03;1.40;;;;;;;19.65;46.40;94678.06;10483291;28;20045;-74
2023/03/10 04:25:42;;;;;;;2.85;1.30;;;;;;;19.65;46.45;94671.88;10512225;28;20070;-74
2023/03/10 04:31:03;;;;;;;1.50;0.90;;;;;;;19.62;46.43;94661.81;10497050;28;20049;-74
2023/03/10 04:36:26;;;;;;;1.83;0.98;;;;;;;19.61;46.34;94652.19;10483614;28;20048;-74
2023/03/10 04:41:48;;;;;;;2.08;0.95;;;;;;;19.60;46.45;94648.72;10496596;28;20048;-74
2023/03/10 04:47:08;;;;;;;1.55;1.00;;;;;;;19.59;46.38;94655.25;10495819;28;20051;-74
2023/03/10 04:52:28;;;;;;;1.88;0.85;;;;;;;19.58;46.37;94658.31;10473542;28;20053;-74
2023/03/10 04:57:48;;;;;;;1.13;0.75;;;;;;;19.57;46.38;94671.06;10482175;28;20047;-74
2023/03/10 05:03:07;;;;;;;1.42;0.90;;;;;;;19.54;46.31;94661.78;10481976;28;20047;-74
2023/03/10 05:08:27;;;;;;;1.65;1.00;;;;;;;19.54;46.46;94661.00;10495866;28;20040;-74
2023/03/10 05:13:47;;;;;;;1.98;0.90;;;;;;;19.53;46.31;94657.53;10510920;28;20040;-74
2023/03/10 05:19:07;;;;;;;1.83;1.00;;;;;;;19.51;46.34;94654.44;10495591;28;20049;-74
2023/03/10 05:24:27;;;;;;;1.73;0.82;;;;;;;19.50;46.28;94649.41;10481881;28;20052;-74
2023/03/10 05:29:47;;;;;;;1.23;0.85;;;;;;;19.50;46.42;94644.00;10481523;28;20480;-74
2023/03/10 05:35:12;;;;;;;1.55;0.90;;;;;;;19.49;46.28;94635.13;10496360;28;20040;-74
2023/03/10 05:40:33;;;;;;;1.58;0.80;;;;;;;19.49;46.27;94616.22;10481421;28;20043;-74
2023/03/10 05:45:57;;;;;;;0.98;0.80;;;;;;;19.48;46.36;94609.28;10495346;28;20044;-74
2023/03/10 05:51:17;;;;;;;1.58;0.95;;;;;;;19.50;46.78;94617.00;10481114;28;20458;-74
2023/03/10 05:56:38;;;;;;;1.40;0.90;;;;;;;19.51;46.67;94630.13;10499503;28;20051;-74
2023/03/10 06:01:58;;;;;;;2.13;0.70;;;;;;;19.53;46.88;94627.06;10502903;28;20044;-74
2023/03/10 06:07:17;;;;;;;0.85;0.70;;;;;;;19.54;47.06;94628.59;10488902;28;20049;-74
2023/03/10 06:12:37;;;;;;;1.45;0.90;;;;;;;19.56;47.12;94624.38;10488387;28;20040;-74
2023/03/10 06:17:56;;;;;;;1.33;0.80;;;;;;;19.59;47.10;94627.47;10517199;28;20078;-74
2023/03/10 06:23:16;;;;;;;1.13;0.75;;;;;;;19.60;47.28;94627.09;10501688;28;20055;-74
2023/03/10 06:28:37;;;;;;;0.68;0.60;;;;;;;19.63;47.40;94652.56;10501730;28;20057;-73
2023/03/10 06:33:58;;;;;;;1.17;0.88;;;;;;;19.64;47.14;94657.59;10501631;28;20037;-74
2023/03/10 06:39:17;;;;;;;1.15;0.90;;;;;;;19.66;47.14;94673.41;10501251;28;20044;-73
2023/03/10 06:44:36;;;;;;;1.83;0.88;;;;;;;19.70;47.02;94668.84;10500986;28;20514;-74
2023/03/10 06:49:56;;;;;;;1.10;0.80;;;;;;;19.71;47.04;94670.38;10499269;28;20061;-74
2023/03/10 06:55:16;;;;;;;1.25;0.85;;;;;;;19.73;46.95;94670.81;10515831;28;20055;-74
2023/03/10 07:00:37;;;;;;;2.78;0.90;;;;;;;19.75;46.89;94677.38;10500599;28;20045;-74
2023/03/10 07:06:00;;;;;;;1.33;0.70;;;;;;;19.78;46.82;94678.56;10514920;28;20066;-74
2023/03/10 07:11:21;;;;;;;0.95;0.80;;;;;;;19.80;46.84;94688.97;10486911;28;20048;-74
2023/03/10 07:16:40;;;;;;;2.30;0.80;;;;;;;19.83;46.79;94699.03;10515047;28;20090;-74
2023/03/10 07:22:00;;;;;;;1.30;0.70;;;;;;;19.85;46.66;94691.31;10499860;28;20047;-74
2023/03/10 07:27:19;;;;;;;1.20;0.82;;;;;;;19.89;46.79;94682.09;10499522;28;20044;-74
2023/03/10 07:32:38;;;;;;;2.70;0.73;;;;;;;19.91;46.60;94665.50;10514418;28;20052;-74
2023/03/10 07:37:58;;;;;;;1.58;0.93;;;;;;;19.94;46.62;94670.94;10499067;28;20040;-74
2023/03/10 07:43:17;;;;;;;0.73;0.63;;;;;;;19.97;46.41;94665.91;10513960;28;20143;-74
2023/03/10 07:48:37;;;;;;;1.35;0.80;;;;;;;20.02;46.36;94665.56;10513693;28;20047;-74
2023/03/10 07:53:56;;;;;;;1.15;0.88;;;;;;;20.04;46.42;94671.38;10485434;28;20061;-74
2023/03/10 07:59:16;;;;;;;0.75;0.73;;;;;;;20.06;46.37;94661.72;10513183;28;20488;-74
2023/03/10 08:04:35;;;;;;;1.08;0.68;;;;;;;20.10;46.21;94673.31;10513034;28;20037;-74
2023/03/10 08:09:55;;;;;;;1.05;0.80;;;;;;;20.12;46.22;94656.72;10512864;28;20048;-74
2023/03/10 08:15:14;;;;;;;1.15;0.80;;;;;;;20.17;46.11;94650.19;10512577;28;20047;-74
2023/03/10 08:20:35;;;;;;;1.35;0.80;;;;;;;20.20;46.10;94652.13;10496367;28;20483;-74
2023/03/10 08:25:59;;;;;;;1.50;0.70;;;;;;;20.21;45.83;94650.97;10497273;28;20408;-74
2023/03/10 08:31:20;;;;;;;1.48;0.88;;;;;;;20.25;45.90;94649.06;10497061;28;20063;-75
2023/03/10 08:36:39;;;;;;;1.02;0.80;;;;;;;20.28;46.08;94635.53;10511860;28;20045;-74
2023/03/10 08:41:59;;;;;;;5.60;1.33;;;;;;;20.31;46.32;94634.78;10483718;28;20089;-73
2023/03/10 08:47:19;;;;;;;2.25;0.80;;;;;;;20.34;46.59;94631.31;10497136;28;20036;-75
2023/03/10 08:52:38;;;;;;;1.38;0.70;;;;;;;20.38;46.62;94620.50;10502173;28;20045;-75
2023/03/10 08:57:58;;;;;;;2.15;0.60;;;;;;;20.41;46.50;94608.19;10496027;28;20040;-75
2023/03/10 09:03:18;;;;;;;0.93;0.57;;;;;;;20.43;46.51;94606.63;10511125;28;20044;-74
2023/03/10 09:08:38;;;;;;;1.90;0.55;;;;;;;20.47;46.56;94609.34;10495829;28;20048;-75
2023/03/10 09:13:59;;;;;;;1.30;0.80;;;;;;;20.50;46.49;94603.16;10495883;28;20090;-75
2023/03/10 09:19:18;;;;;;;2.00;0.80;;;;;;;20.54;46.31;94606.63;10495547;28;20617;-75
2023/03/10 09:24:38;;;;;;;1.13;0.60;;;;;;;20.56;46.30;94593.50;10510666;28;20044;-74
2023/03/10 09:29:57;;;;;;;1.10;0.80;;;;;;;20.59;46.43;94592.78;10483212;28;20044;-74
2023/03/10 09:35:17;;;;;;;2.72;0.63;;;;;;;20.63;46.32;94581.97;10489748;28;20052;-74
2023/03/10 09:40:41;;;;;;;0.70;0.60;;;;;;;20.66;46.23;94564.94;10503630;28;20093;-74
2023/03/10 09:46:16;;;;;;;2.25;0.70;;;;;;;20.67;45.98;94553.75;10518577;28;20488;-74
2023/03/10 09:51:38;;;;;;;3.67;0.65;;;;;;;20.71;46.04;94542.94;10495379;28;20056;-74
2023/03/10 09:56:59;;;;;;;1.95;0.60;;;;;;;20.73;46.25;94533.25;10502926;28;20048;-74
2023/03/10 10:02:48;;;;;;;3.03;0.55;;;;;;;20.76;46.10;94537.16;10502906;28;20041;-74
2023/03/10 10:08:45;;;;;;;1.70;0.57;;;;;;;20.78;46.14;94534.03;10517749;28;20071;-74
2023/03/10 10:14:14;;;;;;;1.25;0.65;;;;;;;20.80;46.10;94539.84;10488408;28;20050;-74
2023/03/10 10:19:36;;;;;;;2.88;0.90;;;;;;;20.82;46.15;94535.59;10502260;28;20055;-74
2023/03/10 10:25:08;;;;;;;1.52;0.60;;;;;;;20.83;46.17;94520.13;10501936;28;20036;-75
2023/03/10 10:30:38;;;;;;;3.80;0.60;;;;;;;20.84;45.97;94518.97;10516870;28;20047;-74
2023/03/10 10:36:00;;;;;;;0.50;0.50;;;;;;;20.85;45.97;94531.34;10501606;28;20040;-75
2023/03/10 10:41:24;;;;;;;2.30;0.50;;;;;;;20.86;46.11;94535.59;10486167;28;20051;-74
2023/03/10 10:46:51;;;;;;;1.65;0.57;;;;;;;20.87;46.40;94545.25;10487045;28;20044;-75
2023/03/10 10:52:23;;;;;;;1.88;0.60;;;;;;;20.86;46.07;94538.31;10508027;28;20060;-75
2023/03/10 10:57:53;;;;;;;1.27;0.82;;;;;;;20.87;45.93;94534.44;10486545;28;20067;-75
2023/03/10 11:03:35;;;;;;;1.27;0.57;;;;;;;20.86;46.05;94513.94;10472446;28;20044;-73
2023/03/10 11:09:07;;;;;;;2.08;0.60;;;;;;;20.88;46.13;94522.47;10500498;28;20044;-75
2023/03/10 11:15:00;;;;;;;2.63;0.50;;;;;;;20.88;46.22;94512.41;10486374;28;20058;-74
2023/03/10 11:20:32;;;;;;;0.77;0.77;;;;;;;20.66;39.08;94505.44;10514823;28;20044;-75
2023/03/10 11:26:00;;;;;;;2.90;0.73;;;;;;;20.53;42.31;94496.91;10514554;28;20040;-74
2023/03/10 11:31:46;;;;;;;1.30;0.52;;;;;;;20.64;43.58;94497.72;10499493;28;20048;-75
2023/03/10 11:37:28;;;;;;;3.72;1.35;;;;;;;20.71;44.25;94486.88;10513984;28;20112;-74
2023/03/10 11:42:54;;;;;;;2.03;0.80;;;;;;;20.73;44.52;94484.56;10485320;28;20094;-76
2023/03/10 11:48:40;;;;;;;1.00;0.63;;;;;;;20.76;44.68;94482.25;10513968;28;20040;-75
2023/03/10 11:54:03;;;;;;;2.35;0.90;;;;;;;20.77;44.95;94478.38;10443395;28;20056;-75
2023/03/10 11:59:26;;;;;;;1.52;0.88;;;;;;;20.78;45.02;94469.09;10470795;28;20483;-74
2023/03/10 12:05:07;;;;;;;2.15;0.65;;;;;;;20.77;45.09;94464.84;10470644;28;20075;-75
2023/03/10 12:10:28;;;;;;;1.02;0.60;;;;;;;20.77;44.93;94467.56;10471351;28;20053;-76
2023/03/10 12:15:49;;;;;;;0.85;0.70;;;;;;;20.77;44.78;94462.16;10471167;28;20090;-75
2023/03/10 12:21:19;;;;;;;3.08;0.82;;;;;;;20.77;45.03;94456.75;10457546;28;20068;-75
2023/03/10 12:26:38;;;;;;;9.65;0.90;;;;;;;20.76;44.63;94450.56;10469764;28;20041;-75
2023/03/10 12:31:57;;;;;;;2.30;0.80;;;;;;;20.65;40.76;94455.97;10470484;28;20041;-75
2023/03/10 12:37:21;;;;;;;0.95;0.70;;;;;;;20.64;42.22;94459.06;10469347;28;20049;-75
2023/03/10 12:42:44;;;;;;;2.67;0.70;;;;;;;20.63;41.21;94446.72;10470222;28;20040;-75
2023/03/10 12:48:09;;;;;;;2.30;0.90;;;;;;;20.65;42.13;94450.56;10455963;28;20053;-75
2023/03/10 12:53:37;;;;;;;2.88;0.80;;;;;;;20.65;42.40;94430.84;10492773;28;20059;-75
2023/03/10 12:59:09;;;;;;;1.42;0.80;;;;;;;20.65;42.58;94430.84;10495512;28;20051;-74
2023/03/10 13:04:29;;;;;;;0.98;0.75;;;;;;;20.65;42.91;94420.81;10478169;28;20048;-75
2023/03/10 13:09:49;;;;;;;1.33;0.80;;;;;;;20.64;43.20;94432.00;10506071;28;20484;-76
2023/03/10 13:15:29;;;;;;;2.95;0.70;;;;;;;20.63;43.57;94409.59;10496748;28;20042;-75
2023/03/10 13:20:49;;;;;;;2.67;0.90;;;;;;;20.65;43.70;94411.94;10495703;28;20476;-76
2023/03/10 13:26:14;;;;;;;0.85;0.75;;;;;;;20.63;43.47;94404.19;10482291;28;20040;-76
2023/03/10 13:31:34;;;;;;;2.78;0.70;;;;;;;20.63;43.67;94411.53;10510676;28;20118;-74
2023/03/10 13:37:04;;;;;;;1.27;0.65;;;;;;;20.62;43.51;94408.06;10510477;28;20047;-74
2023/03/10 13:42:27;;;;;;;1.00;0.70;;;;;;;20.62;43.40;94408.06;10495210;28;20047;-74
2023/03/10 13:47:48;;;;;;;0.70;0.60;;;;;;;20.59;43.49;94435.88;10494977;28;20056;-74
2023/03/10 13:53:23;;;;;;;0.88;0.60;;;;;;;20.55;42.42;94425.03;10476712;28;20056;-74
2023/03/10 13:58:43;;;;;;;0.82;0.50;;;;;;;20.55;42.96;94421.56;10464879;28;20504;-74
2023/03/10 14:04:07;;;;;;;3.80;0.73;;;;;;;20.54;43.07;94415.41;10494882;28;20051;-74
2023/03/10 14:09:27;;;;;;;1.00;0.75;;;;;;;20.53;43.21;94416.53;10509686;28;20052;-74
2023/03/10 14:14:46;;;;;;;1.35;0.60;;;;;;;20.52;43.23;94416.91;10494538;28;20203;-74
2023/03/10 14:20:08;;;;;;;1.48;0.60;;;;;;;20.50;43.57;94414.63;10484586;28;20045;-74
2023/03/10 14:25:28;;;;;;;1.80;0.75;;;;;;;20.50;43.46;94411.13;10512866;28;20039;-74
2023/03/10 14:30:47;;;;;;;2.22;0.60;;;;;;;20.51;43.63;94415.38;10512649;28;20522;-74
2023/03/10 14:36:10;;;;;;;1.10;0.65;;;;;;;20.48;43.73;94467.53;10516397;28;20598;-74
2023/03/10 14:41:30;;;;;;;0.88;0.50;;;;;;;20.47;43.78;94463.31;10516302;28;20404;-74
2023/03/10 14:46:51;;;;;;;1.13;0.80;;;;;;;20.45;43.93;94439.34;10502341;28;20090;-74
2023/03/10 14:52:15;;;;;;;1.15;0.60;;;;;;;20.44;43.87;94434.31;10493194;28;20052;-74
2023/03/10 14:57:36;;;;;;;0.60;0.60;;;;;;;20.42;44.05;94426.59;10500589;28;20043;-74
2023/03/10 15:02:56;;;;;;;2.97;0.88;;;;;;;20.42;44.05;94432.00;10500673;28;20102;-74
2023/03/10 15:08:16;;;;;;;1.50;0.68;;;;;;;20.42;44.16;94433.94;10515395;28;20051;-74
2023/03/10 15:13:37;;;;;;;3.05;0.80;;;;;;;20.40;44.14;94431.59;10515284;28;20447;-74
2023/03/10 15:18:56;;;;;;;1.55;0.65;;;;;;;20.39;44.29;94432.00;10499896;28;20048;-74
2023/03/10 15:24:16;;;;;;;0.82;0.80;;;;;;;20.37;44.30;94429.69;10514788;28;20048;-74
2023/03/10 15:29:36;;;;;;;1.67;0.50;;;;;;;20.38;44.51;94435.88;10499078;28;20503;-74
2023/03/10 15:34:56;;;;;;;0.98;0.60;;;;;;;20.36;44.49;94441.66;10485306;28;20477;-74
2023/03/10 15:40:19;;;;;;;1.08;0.60;;;;;;;20.35;44.64;94437.41;10513848;28;20044;-73
2023/03/10 15:45:41;;;;;;;1.45;0.35;;;;;;;20.34;44.69;94431.22;10513890;28;20041;-74
2023/03/10 15:51:01;;;;;;;0.50;0.40;;;;;;;20.33;44.95;94426.97;10479686;28;20102;-74
2023/03/10 15:56:21;;;;;;;1.13;0.63;;;;;;;20.32;45.11;94422.72;10499671;28;20090;-74
2023/03/10 16:01:40;;;;;;;1.33;0.80;;;;;;;20.31;45.12;94426.59;10499320;28;20444;-74
2023/03/10 16:07:03;;;;;;;0.85;0.70;;;;;;;20.30;45.26;94419.63;10498008;28;20503;-74
2023/03/10 16:12:23;;;;;;;0.70;0.50;;;;;;;20.30;45.20;94424.28;10513152;28;20037;-74
2023/03/10 16:17:42;;;;;;;1.33;0.60;;;;;;;20.30;44.18;94438.56;10512727;28;20040;-74
2023/03/10 16:23:02;;;;;;;0.98;0.60;;;;;;;20.28;44.65;94456.34;10512767;28;20067;-74
2023/03/10 16:28:21;;;;;;;0.50;0.50;;;;;;;20.26;43.48;94464.81;10475605;28;20047;-74
2023/03/10 16:33:41;;;;;;;1.75;0.60;;;;;;;20.24;44.58;94463.66;10470725;28;20036;-74
2023/03/10 16:39:05;;;;;;;22.48;6.63;;;;;;;20.22;45.01;94455.94;10454690;28;20049;-74
2023/03/10 16:44:25;;;;;;;13.45;4.20;;;;;;;20.22;45.83;94458.63;10455537;28;20040;-74
2023/03/10 16:49:45;;;;;;;15.68;3.55;;;;;;;20.23;47.30;94462.09;10468965;28;20103;-73
2023/03/10 16:55:07;;;;;;;11.88;3.72;;;;;;;20.24;48.08;94436.63;10455031;28;20086;-73
2023/03/10 17:00:27;;;;;;;9.23;2.85;;;;;;;20.25;48.81;94433.56;10470170;28;20049;-74
2023/03/10 17:05:51;;;;;;;8.90;3.40;;;;;;;20.26;49.46;94426.97;10469665;28;20056;-75
2023/03/10 17:11:22;;;;;;;10.20;3.42;;;;;;;20.27;51.56;94419.66;10475359;28;20114;-74
2023/03/10 17:16:42;;;;;;;10.95;3.42;;;;;;;20.29;51.57;94428.16;10455008;28;20060;-73
2023/03/10 17:22:02;;;;;;;8.57;3.08;;;;;;;20.31;51.62;94431.25;10455033;28;20484;-74
2023/03/10 17:27:22;;;;;;;9.73;3.20;;;;;;;20.30;51.87;94433.16;10454470;28;20037;-74
2023/03/10 17:32:43;;;;;;;7.35;2.45;;;;;;;20.30;51.70;94435.84;10454441;28;20435;-74
2023/03/10 17:38:03;;;;;;;5.93;2.40;;;;;;;20.29;50.57;94417.34;10469169;28;20049;-75
2023/03/10 17:43:24;;;;;;;6.55;1.65;;;;;;;20.26;50.31;94413.44;10440364;28;20049;-74
2023/03/10 17:48:44;;;;;;;4.68;1.27;;;;;;;20.24;49.66;94421.19;10468946;28;20045;-74
2023/03/10 17:54:04;;;;;;;3.60;1.73;;;;;;;20.22;49.55;94422.72;10463408;28;20057;-74
2023/03/10 17:59:24;;;;;;;4.82;1.48;;;;;;;20.21;49.28;94432.78;10461803;28;20053;-74
2023/03/10 18:04:47;;;;;;;4.15;1.27;;;;;;;20.17;49.05;94432.00;10448144;28;20049;-74
2023/03/10 18:10:07;;;;;;;3.88;1.40;;;;;;;20.16;48.64;94419.63;10476854;28;20045;-75
2023/03/10 18:15:27;;;;;;;4.15;1.30;;;;;;;20.15;48.64;94420.81;10461540;28;20091;-75
2023/03/10 18:20:47;;;;;;;2.47;1.25;;;;;;;20.12;48.55;94414.22;10476149;28;20045;-75
2023/03/10 18:26:12;;;;;;;5.80;1.25;;;;;;;20.12;48.53;94410.75;10461161;28;20428;-75
2023/03/10 18:31:33;;;;;;;2.25;1.30;;;;;;;20.10;48.23;94411.13;10461054;28;20048;-75
2023/03/10 18:36:52;;;;;;;2.15;1.10;;;;;;;20.09;48.33;94415.00;10460962;28;20048;-75
2023/03/10 18:42:12;;;;;;;2.67;1.20;;;;;;;20.08;48.17;94412.69;10475515;28;20037;-75
2023/03/10 18:47:31;;;;;;;2.33;1.23;;;;;;;20.07;48.14;94403.03;10475373;28;20041;-74
2023/03/10 18:52:50;;;;;;;3.17;1.02;;;;;;;20.06;47.88;94409.59;10465417;28;20152;-74
2023/03/10 18:58:10;;;;;;;1.83;1.20;;;;;;;20.05;48.08;94413.44;10460725;28;20457;-72
2023/03/10 19:03:30;;;;;;;2.63;1.25;;;;;;;20.04;48.02;94399.16;10473322;28;20041;-72
2023/03/10 19:08:49;;;;;;;1.33;1.00;;;;;;;20.02;47.94;94406.13;10473881;28;20056;-72
2023/03/10 19:14:09;;;;;;;3.08;1.10;;;;;;;20.02;48.03;94403.41;10458588;28;20040;-71
2023/03/10 19:19:28;;;;;;;2.58;1.10;;;;;;;20.01;47.92;94401.84;10473314;28;20045;-73
2023/03/10 19:24:47;;;;;;;1.77;1.00;;;;;;;20.00;48.33;94408.44;10458540;28;20095;-73
2023/03/10 19:30:15;;;;;;;2.17;1.00;;;;;;;20.00;48.67;94416.53;10473266;28;20045;-73
2023/03/10 19:35:35;;;;;;;2.85;1.00;;;;;;;19.99;48.60;94414.97;10472887;28;20040;-74
2023/03/10 19:40:54;;;;;;;1.35;0.98;;;;;;;20.00;48.48;94421.94;10457499;28;20094;-75
2023/03/10 19:46:14;;;;;;;2.65;0.95;;;;;;;20.00;48.47;94416.53;10472500;28;20071;-74
2023/03/10 19:51:34;;;;;;;1.55;0.80;;;;;;;20.01;48.31;94412.66;10501826;28;20063;-74
2023/03/10 19:56:53;;;;;;;1.98;0.95;;;;;;;20.02;48.29;94398.78;10513420;28;20071;-74
2023/03/10 20:02:15;;;;;;;1.65;1.00;;;;;;;20.03;48.26;94399.53;10498250;28;20040;-74
2023/03/10 20:07:34;;;;;;;1.15;0.80;;;;;;;20.03;48.53;94391.44;10498075;28;20118;-74
2023/03/10 20:12:54;;;;;;;5.03;1.33;;;;;;;20.03;48.50;94378.72;10512710;28;20044;-74
2023/03/10 20:18:17;;;;;;;1.45;0.93;;;;;;;20.04;48.57;94380.25;10512573;28;20044;-74
2023/03/10 20:23:39;;;;;;;2.75;1.00;;;;;;;20.05;48.61;94389.13;10512355;28;20041;-74
2023/03/10 20:28:59;;;;;;;1.52;0.93;;;;;;;20.05;48.66;94392.63;10497230;28;20115;-74
2023/03/10 20:34:20;;;;;;;3.30;1.10;;;;;;;20.06;48.96;94390.69;10511975;28;20040;-74
2023/03/10 20:39:40;;;;;;;2.53;0.98;;;;;;;20.05;48.56;94386.41;10511779;28;20381;-74
2023/03/10 20:45:01;;;;;;;3.90;1.27;;;;;;;20.05;48.62;94400.72;10511699;28;20040;-75
2023/03/10 20:50:21;;;;;;;3.42;1.10;;;;;;;20.06;48.75;94409.59;10493925;28;20143;-74
2023/03/10 20:55:41;;;;;;;68.88;12.80;;;;;;;20.07;49.39;94411.91;10496941;28;20045;-75
2023/03/10 21:01:00;;;;;;;17.02;4.15;;;;;;;20.08;48.91;94415.38;10496136;28;20041;-75
2023/03/10 21:06:22;;;;;;;14.10;3.60;;;;;;;20.10;48.89;94410.38;10481846;28;20480;-75
2023/03/10 21:11:41;;;;;;;12.70;3.25;;;;;;;20.10;48.97;94418.47;10482023;28;20055;-75
2023/03/10 21:17:01;;;;;;;12.05;3.13;;;;;;;20.10;48.70;94415.78;10510928;28;20036;-75
2023/03/10 21:22:21;;;;;;;14.73;3.03;;;;;;;20.12;48.81;94418.88;10495755;28;20037;-74
2023/03/10 21:27:43;;;;;;;11.55;3.33;;;;;;;20.12;48.99;94418.88;10486540;28;20055;-75
2023/03/10 21:33:02;;;;;;;13.77;2.90;;;;;;;20.10;48.78;94416.53;10489977;28;20044;-74
2023/03/10 21:38:22;;;;;;;11.02;3.08;;;;;;;20.12;48.68;94418.88;10489902;28;20476;-75
2023/03/10 21:43:43;;;;;;;13.10;3.17;;;;;;;20.13;48.56;94431.22;10503706;28;20044;-75
2023/03/10 21:49:02;;;;;;;8.82;2.63;;;;;;;20.12;48.61;94422.34;10505660;28;20044;-75
2023/03/10 21:54:22;;;;;;;9.20;2.92;;;;;;;20.12;48.45;94440.50;10504323;28;20053;-74
2023/03/10 21:59:42;;;;;;;9.52;2.65;;;;;;;20.12;48.52;94438.56;10503171;28;20542;-74
2023/03/10 22:05:03;;;;;;;10.77;3.47;;;;;;;20.12;48.44;94440.50;10488930;28;20404;-74
2023/03/10 22:10:23;;;;;;;10.90;3.25;;;;;;;20.11;48.41;94434.31;10502654;28;20044;-74
2023/03/10 22:15:42;;;;;;;11.82;3.53;;;;;;;20.11;48.74;94441.63;10517366;28;20511;-74
2023/03/10 22:21:02;;;;;;;11.18;2.80;;;;;;;20.10;49.18;94427.34;10502058;28;20428;-74
2023/03/10 22:26:22;;;;;;;9.40;2.50;;;;;;;20.11;49.01;94417.31;10516988;28;20044;-74
2023/03/10 22:31:41;;;;;;;9.05;2.75;;;;;;;20.09;49.21;94406.91;10516794;28;20579;-75
2023/03/10 22:37:01;;;;;;;9.75;2.55;;;;;;;20.09;49.24;94403.41;10500194;28;20040;-75
2023/03/10 22:42:20;;;;;;;6.53;2.45;;;;;;;20.08;49.25;94397.22;10501411;28;20051;-75
2023/03/10 22:47:40;;;;;;;10.80;2.80;;;;;;;20.08;49.07;94404.56;10487138;28;20412;-75
2023/03/10 22:53:00;;;;;;;7.13;2.22;;;;;;;20.07;49.07;94398.41;10505867;28;20510;-75
2023/03/10 22:58:19;;;;;;;9.60;2.58;;;;;;;20.07;48.97;94386.81;10500709;28;20048;-74
2023/03/10 23:03:40;;;;;;;5.72;1.85;;;;;;;20.06;48.88;94390.69;10515694;28;20041;-74
2023/03/10 23:09:02;;;;;;;7.78;2.20;;;;;;;20.05;48.85;94383.72;10515561;28;20106;-74
2023/03/10 23:14:21;;;;;;;6.80;2.30;;;;;;;20.05;48.86;94397.22;10472568;28;20403;-75
2023/03/10 23:19:41;;;;;;;5.60;1.95;;;;;;;20.04;48.75;94398.41;10500057;28;20048;-74
2023/03/10 23:25:00;;;;;;;9.63;2.60;;;;;;;20.04;48.55;94395.69;10486022;28;20056;-75
2023/03/10 23:30:20;;;;;;;4.35;1.92;;;;;;;20.04;48.74;94395.69;10513940;28;20094;-74
2023/03/10 23:35:39;;;;;;;6.38;2.13;;;;;;;20.01;48.74;94385.66;10444027;28;20095;-74
2023/03/10 23:40:59;;;;;;;6.55;2.20;;;;;;;20.00;48.63;94389.53;10443965;28;20400;-75
2023/03/10 23:46:20;;;;;;;5.15;1.85;;;;;;;20.00;48.56;94392.97;10472687;28;20037;-74
2023/03/10 23:51:40;;;;;;;5.90;2.40;;;;;;;19.98;48.53;94387.19;10436921;28;20505;-74
2023/03/10 23:56:59;;;;;;;8.32;2.20;;;;;;;19.98;48.66;94389.13;10457207;28;20036;-76
